OEJNDGAA

Guest
Details From OEJN - Jeddah King Abdulaziz Intl
To DGAA - Kotoka Intl
Flight Number -
Tags Generated
Created
Modified
Stats Distance 2,481 nm / 4,594 km
Max Altitude 0 ft / 0 m
Waypoints 3
Social Downloads 2
Likes 0
Share VATSIM

Download

Looking for another format? Having issues loading an existing format? Contact us
Advertisement - Login to hide

Notes

Generated

Route

OEJN ACC DGAA

ID Type Via Altitude Latitude Longitude Leg Dist Tot Dist Heading (true) Name
O OEJN APT - 0 ft / 0 m 21.68913˚ 39.15388˚ - 0 nm - -
ACC VOR - 0 ft / 0 m 5.63411˚ -0.15534˚ 2477 nm 2477 nm 253° / 243° ACCRA VOR-DME
O DGAA APT - 0 ft / 0 m 5.59096˚ -0.17264˚ 2 nm 2480 nm 202° / 202° -

Altitude Profile

Advertisement - Login to hide

Weather


0- 5 10 15 20 25 30 35+ Temperature / ° C

Clouds and Precipitation
Forecast for 2017-12-11 18:00 UTC. Updated 31 minutes ago

Ground ~20,000 ft ~40,000 ft Winds

OEJN

Details ICAO OEJN (JED)
Name Jeddah King Abdulaziz Intl
Region Saudi Arabia
Timezone Asia/Riyadh (UTC+3.0)
Stats Elevation 48 ft / 15 m (AMSL)
Location 21.681319° 39.155647°
Runways 3
Magnetic Variation 3.513° E

METAR

OEJN 111700Z 33004KT CAVOK 27/20 Q1017 NOSIG

Decode

TAF

TAF OEJN 111100Z 1112/1218 26012KT 7000 SKC BECMG 1118/1120 03008KT

Decode

Departure Runways

ID Width Length Bearing (true) Bearing (mag) Surface Threshold Offset Overrun Length
16C 197 ft / 60 m 10,866 ft / 3,312 m 159.86° 156.35° Concrete 500 ft / 152 m 0 ft / 0 m
16L 148 ft / 45 m 12,151 ft / 3,704 m 159.87° 156.36° Asphalt 800 ft / 244 m 0 ft / 0 m
16R 197 ft / 60 m 12,514 ft / 3,814 m 159.86° 156.35° Concrete 0 ft / 0 m 394 ft / 120 m
34C 197 ft / 60 m 10,866 ft / 3,312 m 339.87° 336.36° Concrete 500 ft / 152 m 0 ft / 0 m
34L 197 ft / 60 m 12,514 ft / 3,814 m 339.86° 336.35° Concrete 0 ft / 0 m 394 ft / 120 m
34R 148 ft / 45 m 12,151 ft / 3,704 m 339.88° 336.37° Asphalt 800 ft / 244 m 0 ft / 0 m

DGAA

Details ICAO DGAA (ACC)
Name Accra_Kotoka_Intl
Region Ghana
Timezone Africa/Accra (UTC+0.0)
Stats Elevation 204 ft / 62 m (AMSL)
Location 5.602578° -0.167602°
Runways 1
Magnetic Variation 3.421° W

METAR

DGAA 111700Z 15004KT 120V180 2000 HZ FEW034 29/22 Q1009 NOSIG

Decode

TAF

TAF TAF DGAA 111120Z 1112/1218 09005KT 2000 HZ FEW020 BECMG 1118/1120 5000 SCT012 BECMG 1200/1202 6000 NSC BECMG 1205/1207 2000 BR NSC

Decode

Destination Runways

ID Width Length Bearing (true) Bearing (mag) Surface Threshold Offset Overrun Length
03 200 ft / 61 m 11,176 ft / 3,406 m 22.00° 25.42° Asphalt 0 ft / 0 m 351 ft / 107 m
21 200 ft / 61 m 11,176 ft / 3,406 m 202.00° 205.42° Asphalt 1,355 ft / 413 m 0 ft / 0 m

Approach Navaids

Runway Type Ident Frequency Range Bearing (true) Bearing (mag) Slope Elevation
21 Localiser IACA 109.90 MHz 18 nm / 33 km 202.10° 205.52° - 204 ft / 62 m (AMSL)
21 Glidescope IACA 109.90 MHz 10 nm / 19 km 203.00° 206.42° 3.00° 204 ft / 62 m (AMSL)